Time;durP1;ratioP1;P1;durP2;ratioP2;P2;SDS_P1;SDS_P2;PMS_P1;PMS_P2;Temp;Humidity;BMP_temperature;BMP_pressure;BME280_temperature;BME280_humidity;BME280_pressure;Samples;Min_cycle;Max_cycle;Signal;HPM_P1;HPM_P2
2023/08/26 07:10:47;;;;;;;10.50;3.95;;;;;;;19.26;89.28;96360.19;2082570;28;20568;-67
2023/08/26 07:15:48;;;;;;;11.13;4.45;;;;;;;19.29;91.94;96365.22;2100843;27;20562;-68
2023/08/26 07:16:49;;;;;;;12.30;5.03;;;;;;;19.41;92.15;96366.84;2093782;28;20729;-68
2023/08/26 07:18:57;;;;;;;8.18;4.93;;;;;;;19.61;90.27;96351.06;2083886;28;20557;-69
2023/08/26 07:40:38;;;;;;;12.82;4.78;;;;;;;18.73;93.92;96324.00;2099962;27;20570;-66
2023/08/26 07:41:40;;;;;;;20.42;4.90;;;;;;;19.01;92.25;96317.28;2097280;28;20196;-66
2023/08/26 07:42:43;;;;;;;12.07;4.63;;;;;;;19.28;91.40;96342.38;2080964;28;20282;-68
2023/08/26 07:43:44;;;;;;;10.95;4.25;;;;;;;19.04;89.20;96337.34;2083050;28;20280;-68
2023/08/26 07:44:46;;;;;;;10.43;4.38;;;;;;;19.07;89.63;96345.00;2080708;28;20645;-68
2023/08/26 07:45:48;;;;;;;9.18;4.30;;;;;;;19.24;89.34;96343.59;2080513;28;20280;-68
2023/08/26 07:47:09;;;;;;;9.95;3.67;;;;;;;19.42;88.03;96347.31;2079969;28;20309;-68
2023/08/26 07:48:12;;;;;;;11.70;4.43;;;;;;;19.64;87.95;96342.00;2074573;28;20205;-68
2023/08/26 07:49:16;;;;;;;7.15;4.05;;;;;;;19.88;86.28;96347.00;2074667;28;20809;-68
2023/08/26 07:50:18;;;;;;;11.30;4.00;;;;;;;20.22;85.67;96341.41;2071017;28;20202;-68
2023/08/26 07:51:19;;;;;;;9.02;4.68;;;;;;;20.70;83.29;96330.03;2072358;28;20198;-68
2023/08/26 07:52:21;;;;;;;9.70;3.45;;;;;;;20.92;83.27;96328.09;2072126;28;20678;-68
2023/08/26 07:53:22;;;;;;;15.48;3.80;;;;;;;20.82;84.00;96325.47;2073088;28;20194;-68
2023/08/26 07:54:24;;;;;;;10.77;3.88;;;;;;;21.16;80.72;96329.47;2074251;28;20601;-68
2023/08/26 07:55:25;;;;;;;11.60;3.92;;;;;;;21.11;80.20;96329.06;2073366;28;20206;-68
2023/08/26 07:56:27;;;;;;;8.43;3.40;;;;;;;21.02;79.64;96334.22;2073507;28;20667;-68
2023/08/26 07:57:28;;;;;;;9.15;3.35;;;;;;;20.78;82.14;96345.25;2072683;28;20221;-68
2023/08/26 07:58:30;;;;;;;9.38;3.83;;;;;;;20.80;83.35;96345.16;2070737;28;20293;-68
2023/08/26 07:59:32;;;;;;;10.60;3.45;;;;;;;20.65;81.85;96348.16;2071549;28;20251;-68
2023/08/26 08:30:11;;;;;;;10.48;3.53;;;;;;;19.61;85.44;96339.63;2086577;28;20557;-67
2023/08/26 08:31:12;;;;;;;7.80;2.90;;;;;;;19.73;84.87;96341.19;2081853;28;20197;-66
2023/08/26 08:32:14;;;;;;;10.82;3.40;;;;;;;19.86;83.63;96338.38;2073346;28;20815;-68
2023/08/26 08:33:15;;;;;;;12.98;3.55;;;;;;;20.51;81.57;96335.31;2071569;28;20657;-68
2023/08/26 08:34:17;;;;;;;8.45;3.15;;;;;;;21.08;81.07;96329.31;2073797;28;20285;-68
2023/08/26 08:35:18;;;;;;;10.52;3.45;;;;;;;21.52;78.64;96337.63;2074128;28;20280;-68
2023/08/26 08:36:20;;;;;;;7.93;3.15;;;;;;;21.84;77.77;96329.28;2073859;28;20198;-69
2023/08/26 08:37:21;;;;;;;11.27;2.67;;;;;;;22.05;76.70;96327.38;2074009;28;20217;-68
2023/08/26 08:38:23;;;;;;;8.07;3.17;;;;;;;22.26;76.65;96343.06;2075008;28;20589;-69
2023/08/26 08:39:24;;;;;;;10.10;3.33;;;;;;;22.73;74.91;96334.09;2074167;28;20228;-69
2023/08/26 08:40:26;;;;;;;12.05;2.90;;;;;;;23.17;73.63;96344.00;2075853;28;20612;-71
2023/08/26 08:41:34;;;;;;;11.05;3.17;;;;;;;22.81;73.67;96337.66;2071129;28;20206;-71
2023/08/26 08:42:39;;;;;;;9.55;3.10;;;;;;;22.85;72.00;96332.06;2071677;28;20229;-72
2023/08/26 08:43:45;;;;;;;7.78;2.40;;;;;;;22.82;71.40;96336.69;2074430;28;20197;-72
2023/08/26 08:44:48;;;;;;;11.30;2.38;;;;;;;22.20;71.09;96331.22;2074144;28;20192;-72
2023/08/26 08:45:51;;;;;;;9.50;3.22;;;;;;;22.27;74.61;96340.28;2074277;28;20194;-72
2023/08/26 08:46:53;;;;;;;8.38;2.90;;;;;;;22.12;74.73;96341.78;2074781;28;20236;-72
2023/08/26 08:47:56;;;;;;;12.02;2.35;;;;;;;21.86;73.38;96342.44;2074331;28;20196;-71
2023/08/26 08:48:58;;;;;;;11.55;3.13;;;;;;;21.78;74.13;96350.31;2072568;28;20209;-71
2023/08/26 08:50:01;;;;;;;8.40;2.97;;;;;;;22.00;74.72;96352.59;2072467;28;20295;-72
2023/08/26 08:51:04;;;;;;;6.25;3.20;;;;;;;21.78;73.23;96347.66;2071009;28;20209;-72
2023/08/26 08:52:05;;;;;;;6.80;3.08;;;;;;;21.25;74.17;96349.84;2073754;28;20249;-71
2023/08/26 08:53:08;;;;;;;14.10;3.17;;;;;;;21.19;76.21;96353.06;2073581;28;20240;-72
2023/08/26 08:54:10;;;;;;;9.35;2.80;;;;;;;20.92;75.23;96351.97;2074588;28;20233;-72
2023/08/26 08:55:11;;;;;;;7.30;2.92;;;;;;;21.08;75.90;96358.53;2075065;28;20766;-72
2023/08/26 08:56:16;;;;;;;12.05;3.10;;;;;;;20.98;76.28;96355.91;2073360;28;20653;-71
2023/08/26 08:57:23;;;;;;;5.25;2.88;;;;;;;21.02;75.78;96360.75;2073077;28;20335;-71
2023/08/26 08:58:25;;;;;;;8.77;2.67;;;;;;;21.04;74.84;96358.00;2073937;28;20285;-72
2023/08/26 08:59:27;;;;;;;9.73;3.20;;;;;;;21.15;75.27;96362.28;2075292;28;20251;-71
2023/08/26 09:00:29;;;;;;;12.13;2.97;;;;;;;21.22;75.77;96358.09;2070896;28;20206;-72
2023/08/26 09:01:31;;;;;;;14.00;2.65;;;;;;;20.85;72.24;96367.63;2072017;28;20604;-71
2023/08/26 09:02:40;;;;;;;8.65;2.28;;;;;;;20.51;72.72;96367.16;2073845;28;20226;-71
2023/08/26 09:03:41;;;;;;;11.73;2.92;;;;;;;20.25;73.68;96362.31;2073429;28;20194;-71
2023/08/26 09:04:43;;;;;;;8.48;3.65;;;;;;;20.10;74.74;96375.13;2071141;28;20198;-71
2023/08/26 09:05:45;;;;;;;11.32;3.15;;;;;;;19.90;75.33;96363.63;2072814;28;20636;-71
2023/08/26 09:06:48;;;;;;;6.50;3.10;;;;;;;19.89;76.34;96375.19;2072029;28;20241;-68
2023/08/26 09:07:50;;;;;;;8.48;2.70;;;;;;;19.71;76.48;96373.13;2070894;28;20879;-71
2023/08/26 09:08:53;;;;;;;10.93;3.15;;;;;;;19.66;77.73;96367.38;2072389;28;20678;-71
2023/08/26 09:28:21;;;;;;;13.32;3.60;;;;;;;20.14;81.01;96330.66;2101559;27;20572;-71
2023/08/26 09:29:24;;;;;;;16.50;2.95;;;;;;;20.17;81.09;96338.31;2097637;28;20258;-69
2023/08/26 09:31:56;;;;;;;16.35;2.80;;;;;;;20.36;80.88;96340.19;2084160;28;20564;-70
2023/08/26 09:32:57;;;;;;;13.77;2.95;;;;;;;20.48;81.05;96332.94;2081183;28;20604;-70
2023/08/26 09:34:02;;;;;;;10.20;2.70;;;;;;;20.77;79.70;96342.75;2082705;28;20200;-69
2023/08/26 09:35:12;;;;;;;7.20;2.20;;;;;;;20.65;78.42;96342.84;2080919;28;20200;-70
2023/08/26 09:36:13;;;;;;;6.88;2.55;;;;;;;20.62;77.58;96343.16;2081302;28;20637;-69
2023/08/26 09:37:18;;;;;;;5.10;2.58;;;;;;;20.80;78.53;96337.19;2078203;28;20217;-70
2023/08/26 09:38:19;;;;;;;7.90;2.97;;;;;;;20.75;76.47;96344.69;2078914;28;20575;-70
2023/08/26 09:39:21;;;;;;;10.30;3.08;;;;;;;20.70;75.98;96339.81;2078103;28;20204;-70
2023/08/26 09:41:56;;;;;;;9.50;2.58;;;;;;;20.67;77.13;96340.06;2091623;27;20564;-69
2023/08/26 10:07:33;;;;;;;5.00;2.20;;;;;;;19.80;78.45;96320.34;2099648;27;20570;-70
2023/08/26 10:08:37;;;;;;;5.50;2.65;;;;;;;19.89;78.94;96314.25;2100636;28;20286;-70
2023/08/26 10:10:00;;;;;;;6.65;2.38;;;;;;;20.49;75.05;96308.09;2107189;28;20187;-69
2023/08/26 10:11:07;;;;;;;5.93;2.60;;;;;;;20.49;72.18;96310.75;2103991;28;20221;-70
2023/08/26 10:12:19;;;;;;;8.60;2.40;;;;;;;20.66;72.67;96314.53;2099263;28;20223;-70
2023/08/26 10:13:27;;;;;;;12.88;2.28;;;;;;;20.89;72.21;96323.06;2100127;28;20336;-70
2023/08/26 10:14:32;;;;;;;5.13;2.15;;;;;;;20.92;73.01;96317.47;2103243;28;20194;-70
2023/08/26 10:15:34;;;;;;;5.50;2.15;;;;;;;21.26;71.17;96309.03;2102439;28;20216;-69
2023/08/26 10:16:36;;;;;;;6.53;1.75;;;;;;;21.31;71.71;96306.78;2098186;28;20195;-70
2023/08/26 10:17:43;;;;;;;5.03;2.28;;;;;;;21.36;68.41;96312.50;2095637;28;20223;-71
2023/08/26 10:18:56;;;;;;;7.35;2.00;;;;;;;21.21;71.05;96317.44;2099584;28;20725;-69
2023/08/26 10:19:58;;;;;;;6.78;2.05;;;;;;;21.62;70.88;96319.03;2099192;28;20202;-70
2023/08/26 10:21:03;;;;;;;7.70;1.98;;;;;;;22.08;71.08;96314.63;2095235;28;20196;-70
2023/08/26 10:22:06;;;;;;;7.63;2.42;;;;;;;22.02;68.51;96313.41;2095882;28;20220;-70
2023/08/26 10:23:10;;;;;;;9.52;2.05;;;;;;;22.16;68.18;96320.03;2097572;28;20199;-70
2023/08/26 10:24:12;;;;;;;5.68;2.20;;;;;;;22.11;68.69;96309.00;2098077;28;20251;-68
2023/08/26 10:25:14;;;;;;;13.23;2.40;;;;;;;21.47;67.00;96316.81;2099697;28;20526;-69
2023/08/26 10:26:20;;;;;;;12.93;2.13;;;;;;;21.51;68.55;96320.84;2098113;28;20226;-68
2023/08/26 10:27:21;;;;;;;15.68;4.18;;;;;;;21.90;67.59;96316.41;2098469;28;20239;-68
2023/08/26 10:28:25;;;;;;;7.93;4.07;;;;;;;22.14;67.02;96318.50;2098870;28;20227;-69
2023/08/26 10:29:27;;;;;;;12.73;4.20;;;;;;;22.58;65.71;96312.53;2095896;28;20230;-67
2023/08/26 10:30:30;;;;;;;6.35;2.50;;;;;;;22.67;65.90;96324.91;2099607;28;20201;-68
2023/08/26 10:31:33;;;;;;;8.52;3.50;;;;;;;22.76;64.81;96323.16;2099084;28;20204;-67
2023/08/26 10:32:45;;;;;;;11.65;3.15;;;;;;;22.70;65.21;96324.59;2099509;28;20690;-67
2023/08/26 10:34:08;;;;;;;9.18;2.58;;;;;;;22.67;65.57;96330.22;2099956;28;20199;-67
2023/08/26 10:35:12;;;;;;;10.95;2.70;;;;;;;22.39;65.04;96334.78;2099010;28;20188;-68
2023/08/26 10:36:13;;;;;;;6.90;2.22;;;;;;;22.16;66.17;96332.50;2099344;28;20245;-67
2023/08/26 10:37:16;;;;;;;6.63;2.30;;;;;;;21.87;65.46;96330.00;2099255;28;20554;-68
2023/08/26 10:38:21;;;;;;;10.80;2.70;;;;;;;21.17;67.38;96326.66;2099814;28;20195;-67
2023/08/26 10:39:24;;;;;;;6.45;1.90;;;;;;;21.45;68.01;96331.22;2099167;28;20230;-67
2023/08/26 10:44:30;;;;;;;9.38;2.60;;;;;;;20.62;70.05;96323.72;2087320;28;21087;-66
2023/08/26 14:35:07;;;;;;;6.72;2.35;;;;;;;17.82;89.91;96278.47;2084955;28;20565;-67
2023/08/26 14:36:09;;;;;;;7.20;2.38;;;;;;;17.70;88.53;96270.56;2078865;28;20252;-67
2023/08/26 14:37:10;;;;;;;9.82;2.55;;;;;;;18.04;89.43;96269.69;2073661;28;20241;-67
2023/08/26 14:38:12;;;;;;;4.40;2.17;;;;;;;18.23;88.12;96261.97;2072742;28;20288;-67
2023/08/26 14:39:13;;;;;;;7.45;2.00;;;;;;;18.51;87.81;96262.34;2075506;28;20205;-67
2023/08/26 14:40:15;;;;;;;9.93;2.72;;;;;;;18.54;85.45;96263.88;2073687;28;20204;-68
2023/08/26 14:41:16;;;;;;;9.85;3.78;;;;;;;18.63;85.21;96263.09;2072066;28;20695;-67
2023/08/26 14:42:18;;;;;;;8.23;3.15;;;;;;;18.51;84.40;96275.56;2072947;28;20870;-67
2023/08/26 14:43:19;;;;;;;5.90;3.50;;;;;;;18.76;84.74;96276.97;2073182;28;20203;-67
2023/08/26 14:44:21;;;;;;;13.18;2.70;;;;;;;18.59;84.47;96280.19;2072948;28;20743;-67
2023/08/26 14:45:22;;;;;;;6.82;2.85;;;;;;;18.68;85.94;96268.84;2074688;28;20224;-67
2023/08/26 14:46:24;;;;;;;8.73;2.75;;;;;;;18.60;85.93;96274.78;2068418;28;20531;-67
2023/08/26 14:47:25;;;;;;;7.13;2.65;;;;;;;18.73;86.10;96271.94;2071260;28;20233;-67
2023/08/26 14:54:16;;;;;;;3.70;2.38;;;;;;;18.52;84.72;96279.84;2083987;28;20565;-67
2023/08/26 14:55:17;;;;;;;7.45;2.40;;;;;;;18.47;85.02;96282.03;2082784;28;20586;-67
2023/08/26 14:56:19;;;;;;;15.77;2.78;;;;;;;18.50;84.31;96271.22;2082302;28;20197;-67
2023/08/26 14:57:20;;;;;;;10.27;2.17;;;;;;;18.73;83.93;96269.31;2077755;28;20730;-67
2023/08/26 14:58:22;;;;;;;12.18;2.78;;;;;;;18.97;84.50;96273.53;2073027;28;20275;-67
2023/08/26 14:59:24;;;;;;;7.45;3.35;;;;;;;19.08;82.73;96291.13;2074974;28;20599;-67
2023/08/26 15:00:25;;;;;;;4.97;3.10;;;;;;;19.31;83.35;96288.34;2074104;28;20688;-67
2023/08/26 15:01:27;;;;;;;3.90;2.28;;;;;;;19.34;82.41;96294.22;2075247;28;20773;-67
2023/08/26 15:02:28;;;;;;;5.55;2.00;;;;;;;19.36;81.29;96294.94;2070379;28;20785;-67
2023/08/26 15:03:30;;;;;;;8.05;2.90;;;;;;;19.49;82.55;96307.94;2072171;28;20208;-68
2023/08/26 15:04:31;;;;;;;8.25;2.17;;;;;;;19.79;79.29;96303.59;2074166;28;20734;-68
2023/08/26 15:05:32;;;;;;;8.90;2.70;;;;;;;20.05;77.38;96303.97;2075429;28;20208;-67
2023/08/26 15:06:34;;;;;;;12.48;2.42;;;;;;;20.20;76.27;96308.88;2086575;28;20216;-67
2023/08/26 15:07:36;;;;;;;9.27;2.70;;;;;;;19.75;79.01;96313.59;2087678;28;20273;-67
2023/08/26 15:08:37;;;;;;;10.20;2.08;;;;;;;19.46;79.45;96318.78;2073823;28;20200;-70
2023/08/26 15:09:38;;;;;;;4.53;2.03;;;;;;;19.64;78.87;96329.63;2075951;28;20683;-70
2023/08/26 15:10:41;;;;;;;11.85;3.00;;;;;;;19.90;79.17;96324.72;2074195;28;20288;-69
2023/08/26 15:11:43;;;;;;;9.27;2.50;;;;;;;20.31;77.68;96324.66;2074894;28;20208;-70
2023/08/26 15:12:46;;;;;;;7.95;2.30;;;;;;;20.56;77.01;96318.00;2073951;28;20228;-70
2023/08/26 15:13:47;;;;;;;13.43;3.70;;;;;;;20.21;77.06;96323.81;2070696;28;20309;-69
2023/08/26 15:14:49;;;;;;;6.07;2.70;;;;;;;20.35;76.47;96317.28;2071218;28;20198;-70
2023/08/26 15:15:50;;;;;;;16.70;2.80;;;;;;;20.38;74.29;96323.16;2074894;28;20867;-70
2023/08/26 15:16:52;;;;;;;5.57;2.05;;;;;;;20.24;74.47;96326.22;2083782;28;20197;-70
2023/08/26 15:17:54;;;;;;;8.65;2.65;;;;;;;19.98;74.48;96326.69;2083293;28;20201;-70
2023/08/26 15:18:55;;;;;;;5.20;2.28;;;;;;;20.14;74.16;96312.09;2071982;28;20206;-70
2023/08/26 15:19:59;;;;;;;6.47;2.30;;;;;;;20.10;75.51;96316.84;2072908;28;20650;-70
2023/08/26 15:21:01;;;;;;;9.15;2.20;;;;;;;20.15;75.52;96313.75;2072782;28;20230;-70
2023/08/26 15:22:02;;;;;;;13.20;2.45;;;;;;;20.17;76.34;96317.94;2073172;28;20308;-70
2023/08/26 15:23:04;;;;;;;5.75;2.67;;;;;;;20.35;75.02;96315.50;2074235;28;20744;-70
2023/08/26 15:24:06;;;;;;;5.38;2.50;;;;;;;20.31;73.98;96324.66;2074350;28;20194;-69
2023/08/26 15:25:07;;;;;;;8.05;2.40;;;;;;;20.47;73.49;96316.19;2075419;28;20229;-70
2023/08/26 15:26:09;;;;;;;4.53;2.22;;;;;;;20.26;74.52;96321.59;2073945;28;20289;-70
2023/08/26 15:27:10;;;;;;;4.93;2.30;;;;;;;20.87;74.24;96323.22;2069875;28;20226;-70
2023/08/26 15:28:13;;;;;;;5.45;2.10;;;;;;;20.74;73.67;96309.38;2071217;28;20194;-70
2023/08/26 15:29:15;;;;;;;5.88;1.90;;;;;;;21.24;73.36;96302.19;2072673;28;20214;-70
2023/08/26 15:30:19;;;;;;;6.70;2.13;;;;;;;21.65;71.74;96295.66;2074827;28;20727;-70
2023/08/26 15:31:20;;;;;;;5.93;2.25;;;;;;;21.96;71.09;96300.69;2073803;28;20194;-69
2023/08/26 15:32:22;;;;;;;6.70;2.50;;;;;;;21.50;70.48;96308.56;2073289;28;20228;-70
2023/08/26 15:33:24;;;;;;;5.47;1.85;;;;;;;21.56;71.48;96323.13;2070668;28;21121;-71
2023/08/26 15:34:25;;;;;;;8.57;2.00;;;;;;;20.94;71.33;96325.28;2070487;28;20298;-69
2023/08/26 15:35:28;;;;;;;6.13;1.65;;;;;;;19.90;75.72;96323.88;2074391;28;20200;-69
2023/08/26 15:36:29;;;;;;;4.45;1.98;;;;;;;20.10;76.46;96327.44;2075481;28;20276;-69
2023/08/26 15:37:31;;;;;;;10.52;2.60;;;;;;;19.99;77.28;96330.19;2071847;28;20281;-69
2023/08/26 15:38:32;;;;;;;6.53;2.47;;;;;;;20.39;75.48;96332.78;2072733;28;20608;-69
2023/08/26 15:39:34;;;;;;;4.40;2.35;;;;;;;20.23;74.74;96341.25;2073835;28;20194;-69
2023/08/26 15:40:35;;;;;;;6.40;1.95;;;;;;;19.90;77.88;96334.47;2071769;28;20868;-69
2023/08/26 15:41:37;;;;;;;7.35;2.47;;;;;;;19.90;76.58;96334.47;2070608;28;20202;-69
2023/08/26 15:42:38;;;;;;;4.78;2.03;;;;;;;19.98;75.54;96332.00;2072032;28;20253;-69
2023/08/26 15:43:40;;;;;;;9.52;2.35;;;;;;;20.05;73.91;96338.44;2073175;28;20210;-69
2023/08/26 15:44:41;;;;;;;4.75;2.15;;;;;;;19.82;76.18;96344.88;2071562;28;20210;-69
2023/08/26 15:45:44;;;;;;;6.50;2.58;;;;;;;19.69;73.68;96342.44;2074309;28;20197;-69
2023/08/26 16:00:16;;;;;;;6.90;1.90;;;;;;;19.16;77.57;96335.47;2099726;27;20527;-67
2023/08/26 16:01:18;;;;;;;7.78;2.45;;;;;;;19.72;77.46;96329.78;2095939;28;20294;-67
2023/08/26 16:02:19;;;;;;;5.68;2.10;;;;;;;20.26;73.76;96323.41;2084899;28;20221;-66
2023/08/26 16:03:21;;;;;;;4.68;2.20;;;;;;;20.06;73.35;96332.16;2079683;28;20200;-67
2023/08/26 16:04:23;;;;;;;4.30;2.00;;;;;;;20.11;73.19;96320.31;2079187;28;20212;-67
2023/08/26 16:07:21;;;;;;;9.23;2.15;;;;;;;19.38;73.71;96330.03;2081898;28;20571;-66
2023/08/26 16:08:23;;;;;;;9.43;3.10;;;;;;;19.68;73.87;96333.66;2079115;28;20204;-67
2023/08/26 16:09:25;;;;;;;8.18;2.30;;;;;;;19.95;73.65;96337.56;2082207;28;20196;-67
2023/08/26 17:10:09;;;;;;;13.27;4.90;;;;;;;17.71;87.63;96327.69;2084305;28;20564;-68
2023/08/26 17:12:25;;;;;;;7.45;3.00;;;;;;;17.88;87.70;96318.44;2111742;27;20570;-69
2023/08/26 17:14:44;;;;;;;7.10;2.70;;;;;;;17.84;87.39;96310.88;2084456;28;20549;-68
2023/08/26 17:16:55;;;;;;;10.40;3.15;;;;;;;17.77;87.27;96298.16;2090099;28;20562;-67
2023/08/26 17:17:56;;;;;;;14.98;3.70;;;;;;;17.92;88.22;96325.16;2083357;28;20223;-68
2023/08/26 17:20:10;;;;;;;5.13;2.80;;;;;;;18.18;87.54;96319.63;2091598;28;20575;-68
